Time;durP1;ratioP1;P1;durP2;ratioP2;P2;SDS_P1;SDS_P2;PMS_P1;PMS_P2;Temp;Humidity;BMP_temperature;BMP_pressure;BME280_temperature;BME280_humidity;BME280_pressure;Samples;Min_cycle;Max_cycle;Signal;HPM_P1;HPM_P2
2022/04/08 00:00:53;;;;;;;12.63;6.10;;;;;;;12.61;92.60;97815.53;5033825;28;20178;-86
2022/04/08 00:03:19;;;;;;;11.27;6.10;;;;;;;12.46;92.28;97808.59;5020528;28;20171;-86
2022/04/08 00:05:48;;;;;;;9.17;5.10;;;;;;;12.95;92.37;97883.59;5022094;28;20162;-88
2022/04/08 00:08:13;;;;;;;10.70;5.30;;;;;;;12.12;92.25;97763.41;5022194;28;20254;-89
2022/04/08 00:10:38;;;;;;;8.63;4.53;;;;;;;11.62;92.73;97679.13;5020641;28;20257;-88
2022/04/08 00:13:04;;;;;;;7.53;4.80;;;;;;;9.66;91.98;97361.94;5022567;28;20637;-86
2022/04/08 00:15:33;;;;;;;11.20;5.30;;;;;;;9.86;92.98;97398.41;5013496;28;20165;-88
2022/04/08 00:17:59;;;;;;;8.73;5.00;;;;;;;9.74;92.82;97388.16;5019199;28;20216;-87
2022/04/08 00:20:25;;;;;;;8.60;5.13;;;;;;;10.46;92.89;97519.81;5033141;28;20173;-87
2022/04/08 00:22:51;;;;;;;9.57;4.93;;;;;;;11.17;94.14;97637.19;5031503;28;20170;-87
2022/04/08 00:25:16;;;;;;;11.40;5.90;;;;;;;11.05;95.15;97615.91;5032815;28;20268;-87
2022/04/08 00:27:43;;;;;;;10.70;5.43;;;;;;;10.63;95.35;97568.09;5029879;28;20174;-87
2022/04/08 00:30:09;;;;;;;12.43;5.40;;;;;;;9.72;96.02;97460.56;5011934;28;20186;-86
2022/04/08 00:32:34;;;;;;;10.17;5.10;;;;;;;11.15;96.06;97671.75;5013014;28;20182;-87
2022/04/08 00:35:00;;;;;;;10.33;5.13;;;;;;;12.32;96.87;97894.72;5013103;28;20178;-88
2022/04/08 00:37:26;;;;;;;11.60;5.23;;;;;;;11.66;97.20;97795.78;5012629;28;20166;-87
2022/04/08 00:39:51;;;;;;;10.90;5.40;;;;;;;9.48;97.55;97424.78;5012787;28;20198;-87
2022/04/08 00:42:17;;;;;;;14.83;5.10;;;;;;;12.11;98.22;97886.84;5012660;28;20167;-87
2022/04/08 00:44:43;;;;;;;10.07;5.43;;;;;;;10.31;97.82;97579.44;5012611;28;20612;-87
2022/04/08 00:47:08;;;;;;;11.77;5.93;;;;;;;11.94;98.50;97893.38;5012747;28;20238;-87
2022/04/08 00:49:37;;;;;;;10.03;5.13;;;;;;;11.80;99.31;97900.78;5012620;28;20245;-87
2022/04/08 00:52:02;;;;;;;10.17;5.80;;;;;;;10.77;99.30;97733.63;5019079;28;20193;-86
2022/04/08 00:54:30;;;;;;;12.40;6.00;;;;;;;11.76;99.12;97915.91;5031330;28;20235;-87
2022/04/08 00:56:56;;;;;;;12.33;6.60;;;;;;;11.20;99.22;97826.34;5030923;28;20170;-87
2022/04/08 00:59:24;;;;;;;11.70;6.67;;;;;;;10.43;99.93;97727.19;5034503;28;20252;-88
2022/04/08 01:01:49;;;;;;;9.73;6.47;;;;;;;9.23;99.04;97506.81;5032569;28;20162;-88
2022/04/08 01:04:15;;;;;;;12.37;6.60;;;;;;;9.57;100.00;97632.03;5032600;28;20166;-87
2022/04/08 01:06:42;;;;;;;10.67;6.30;;;;;;;9.46;100.00;97577.94;5032426;28;20202;-87
2022/04/08 01:09:07;;;;;;;10.00;6.30;;;;;;;10.02;100.00;97741.59;5031249;28;20173;-87
2022/04/08 01:11:33;;;;;;;12.40;5.87;;;;;;;8.75;100.00;97524.41;5032268;28;20162;-87
2022/04/08 01:14:13;;;;;;;9.10;5.77;;;;;;;11.31;100.00;97948.94;5032216;28;20166;-87
2022/04/08 01:16:38;;;;;;;12.87;8.30;;;;;;;11.41;100.00;97949.94;5033097;28;20532;-87
2022/04/08 01:19:05;;;;;;;9.23;5.93;;;;;;;10.76;99.20;97814.63;5032786;28;20186;-87
2022/04/08 01:21:31;;;;;;;12.20;6.30;;;;;;;11.59;99.03;97948.56;5031120;28;20178;-87
2022/04/08 01:23:58;;;;;;;11.13;6.60;;;;;;;11.70;98.02;97957.22;5031650;28;20162;-87
2022/04/08 01:26:24;;;;;;;10.93;5.50;;;;;;;11.16;97.08;97865.94;5031810;28;20499;-87
2022/04/08 01:28:51;;;;;;;10.13;5.50;;;;;;;10.76;95.82;97764.00;5032166;28;20170;-88
2022/04/08 01:31:16;;;;;;;10.60;6.30;;;;;;;10.79;95.21;97766.59;5033467;28;20166;-87
2022/04/08 01:33:42;;;;;;;10.37;6.60;;;;;;;11.31;95.40;97879.69;5032106;28;20224;-87
2022/04/08 01:36:07;;;;;;;8.87;5.40;;;;;;;8.68;95.34;97458.69;5031892;28;20168;-87
2022/04/08 01:38:33;;;;;;;8.30;5.87;;;;;;;10.28;94.09;97706.69;5032043;28;20182;-87
2022/04/08 01:40:59;;;;;;;22.57;15.47;;;;;;;10.71;93.68;97796.84;5032083;28;20162;-87
2022/04/08 01:43:24;;;;;;;23.73;13.67;;;;;;;11.58;93.75;97957.00;5032205;28;20249;-87
2022/04/08 01:45:49;;;;;;;19.03;12.27;;;;;;;11.86;92.62;97960.88;5032405;28;20170;-89
2022/04/08 01:48:15;;;;;;;14.93;8.83;;;;;;;10.01;92.24;97660.66;5031804;28;20234;-87
2022/04/08 01:50:40;;;;;;;13.23;6.97;;;;;;;11.30;92.35;97877.97;5032322;28;20177;-87
2022/04/08 01:53:06;;;;;;;10.23;5.23;;;;;;;11.81;92.05;97970.91;5032396;28;20592;-87
2022/04/08 01:55:31;;;;;;;8.90;6.00;;;;;;;9.93;91.55;97670.63;5030616;28;20170;-87
2022/04/08 01:57:57;;;;;;;6.63;4.13;;;;;;;10.82;90.62;97805.47;5031493;28;20167;-87
2022/04/08 02:00:22;;;;;;;9.83;4.30;;;;;;;11.13;90.09;97838.03;5031732;28;20276;-87
2022/04/08 02:02:48;;;;;;;6.13;3.67;;;;;;;11.91;89.94;97993.91;5033133;28;20175;-87
2022/04/08 02:05:13;;;;;;;9.67;4.70;;;;;;;8.96;88.40;97480.22;5035460;28;20177;-87
2022/04/08 02:07:38;;;;;;;8.97;4.90;;;;;;;10.17;87.24;97684.56;5034746;28;20220;-87
2022/04/08 02:10:04;;;;;;;6.90;4.43;;;;;;;12.02;85.71;97979.69;5033660;28;20178;-87
2022/04/08 02:12:30;;;;;;;8.40;5.87;;;;;;;9.95;84.00;97630.22;5034051;28;20188;-87
2022/04/08 02:14:56;;;;;;;7.70;4.73;;;;;;;10.03;83.14;97634.56;5015155;28;20183;-87
2022/04/08 02:17:25;;;;;;;6.13;3.97;;;;;;;10.80;82.50;97746.34;5028119;28;20633;-87
2022/04/08 02:19:50;;;;;;;5.70;3.53;;;;;;;12.24;81.91;97974.97;5035282;28;20213;-87
2022/04/08 02:22:16;;;;;;;7.97;3.20;;;;;;;11.12;81.69;97798.34;5040475;28;20166;-86
2022/04/08 02:24:41;;;;;;;10.03;3.30;;;;;;;11.97;81.98;97946.69;5057962;28;20150;-86
2022/04/08 02:27:07;;;;;;;5.87;3.57;;;;;;;10.68;82.18;97751.22;5044336;28;20170;-88
2022/04/08 02:29:34;;;;;;;4.10;3.27;;;;;;;11.36;82.44;97898.34;5020950;28;20183;-88
2022/04/08 02:31:59;;;;;;;4.50;3.20;;;;;;;11.67;81.14;97933.50;5016226;28;20249;-87
2022/04/08 02:34:25;;;;;;;4.90;3.00;;;;;;;11.82;80.39;97962.50;5016051;28;20205;-87
2022/04/08 02:36:50;;;;;;;4.83;3.00;;;;;;;10.38;80.54;97726.22;5015509;28;20611;-86
2022/04/08 02:39:17;;;;;;;5.37;3.33;;;;;;;12.10;79.97;97994.22;5015031;28;20277;-87
2022/04/08 02:41:43;;;;;;;4.37;3.10;;;;;;;11.25;80.12;97868.63;5013712;28;20166;-87
2022/04/08 02:44:11;;;;;;;5.00;3.20;;;;;;;10.68;80.42;97809.44;5015183;28;20552;-87
2022/04/08 02:46:36;;;;;;;6.70;3.30;;;;;;;11.57;80.48;97936.69;5013566;28;20171;-87
2022/04/08 02:49:02;;;;;;;6.00;3.37;;;;;;;10.57;80.78;97798.25;5013198;28;20178;-87
2022/04/08 02:51:30;;;;;;;5.87;3.30;;;;;;;10.44;81.12;97768.50;5021796;28;20182;-88
2022/04/08 02:53:56;;;;;;;4.97;3.33;;;;;;;11.12;81.09;97894.56;5032984;28;20541;-88
2022/04/08 02:56:21;;;;;;;6.67;3.50;;;;;;;10.09;81.28;97757.69;5034062;28;20177;-87
2022/04/08 02:58:48;;;;;;;6.73;3.57;;;;;;;10.64;81.09;97832.97;5033903;28;20197;-88
2022/04/08 03:01:15;;;;;;;16.27;10.13;;;;;;;10.99;80.71;97885.06;5033188;28;20170;-87
2022/04/08 03:03:40;;;;;;;14.27;7.33;;;;;;;10.49;81.13;97807.41;5034365;28;20631;-87
2022/04/08 03:06:06;;;;;;;13.30;8.27;;;;;;;10.15;81.06;97744.34;5033952;28;20162;-88
2022/04/08 03:08:32;;;;;;;18.30;10.67;;;;;;;9.78;81.13;97705.72;5034028;28;20660;-88
2022/04/08 03:10:57;;;;;;;13.10;8.80;;;;;;;11.71;81.62;98022.31;5033968;28;20158;-87
2022/04/08 03:13:23;;;;;;;5.80;4.17;;;;;;;10.93;80.96;97912.78;5035103;28;20223;-88
2022/04/08 03:15:49;;;;;;;5.53;4.23;;;;;;;10.46;80.80;97814.94;5033506;28;20162;-88
2022/04/08 03:18:15;;;;;;;5.00;3.70;;;;;;;8.71;81.49;97568.03;5033667;28;20170;-87
2022/04/08 03:20:40;;;;;;;5.50;3.77;;;;;;;11.19;81.30;97982.50;5034401;28;20161;-87
2022/04/08 03:23:06;;;;;;;6.63;3.90;;;;;;;8.94;81.37;97601.31;5049018;28;20205;-87
2022/04/08 03:25:31;;;;;;;9.10;5.53;;;;;;;8.84;81.76;97597.75;5033491;28;20638;-88
2022/04/08 03:27:56;;;;;;;6.70;4.33;;;;;;;9.28;81.06;97671.03;5032031;28;20170;-88
2022/04/08 03:30:22;;;;;;;8.83;4.60;;;;;;;9.05;80.28;97609.97;5033647;28;20615;-88
2022/04/08 03:32:47;;;;;;;6.50;3.80;;;;;;;9.67;79.96;97709.69;5034824;28;20247;-87
2022/04/08 03:35:13;;;;;;;7.27;4.50;;;;;;;8.64;79.29;97523.34;5034362;28;20606;-87
2022/04/08 03:37:39;;;;;;;5.43;3.77;;;;;;;8.32;79.11;97476.44;5040859;28;20170;-86
2022/04/08 03:40:05;;;;;;;8.10;4.73;;;;;;;8.66;78.52;97506.56;5047995;28;20216;-87
2022/04/08 03:42:31;;;;;;;7.07;3.80;;;;;;;11.23;78.61;97945.44;5035713;28;20216;-86
2022/04/08 03:44:56;;;;;;;8.77;4.53;;;;;;;9.91;78.06;97711.88;5032403;28;20166;-87
2022/04/08 03:47:22;;;;;;;7.80;5.00;;;;;;;11.89;78.81;98067.41;5033036;28;20765;-87
2022/04/08 03:49:47;;;;;;;7.57;4.40;;;;;;;11.88;78.63;98052.16;5033752;28;20245;-87
2022/04/08 03:52:13;;;;;;;5.40;3.63;;;;;;;9.86;78.04;97726.94;5032343;28;20261;-87
2022/04/08 03:54:39;;;;;;;5.53;4.00;;;;;;;11.90;78.13;98045.44;5034078;28;20163;-87
2022/04/08 03:57:05;;;;;;;5.83;3.70;;;;;;;11.55;77.74;98004.25;5036290;28;20178;-86
2022/04/08 03:59:31;;;;;;;5.47;3.50;;;;;;;10.02;77.80;97769.41;5031588;28;20305;-86
2022/04/08 04:01:56;;;;;;;4.67;3.20;;;;;;;10.82;77.72;97898.25;5032865;28;20169;-86
2022/04/08 04:04:23;;;;;;;6.20;3.50;;;;;;;9.73;76.65;97711.50;5032717;28;20537;-86
2022/04/08 04:06:48;;;;;;;4.63;3.20;;;;;;;10.02;75.90;97723.91;5034021;28;20158;-85
2022/04/08 04:09:14;;;;;;;5.40;3.00;;;;;;;10.50;74.45;97772.00;5034230;28;20165;-85
2022/04/08 04:11:39;;;;;;;7.27;2.73;;;;;;;10.59;74.27;97799.13;5034911;28;20245;-87
2022/04/08 04:14:06;;;;;;;6.03;3.30;;;;;;;11.38;73.98;97910.22;5033101;28;20190;-87
2022/04/08 04:16:32;;;;;;;3.83;2.70;;;;;;;10.17;74.41;97727.53;5031580;28;20236;-88
2022/04/08 04:18:58;;;;;;;4.33;3.00;;;;;;;12.11;74.34;98061.00;5032575;28;20252;-87
2022/04/08 04:21:23;;;;;;;6.03;4.37;;;;;;;11.36;74.13;97929.59;5032464;28;20168;-87
2022/04/08 04:23:49;;;;;;;7.33;4.00;;;;;;;9.75;73.86;97664.41;5032652;28;20162;-86
2022/04/08 04:26:15;;;;;;;6.37;4.10;;;;;;;11.80;73.33;98004.72;5030103;28;20170;-87
2022/04/08 04:28:40;;;;;;;5.87;2.87;;;;;;;10.22;72.82;97724.25;5032507;28;20162;-86
2022/04/08 04:31:06;;;;;;;4.87;3.00;;;;;;;11.60;72.95;97997.56;5030993;28;20182;-86
2022/04/08 04:33:32;;;;;;;4.50;3.00;;;;;;;10.00;73.63;97720.47;5032205;28;20188;-86
2022/04/08 04:35:57;;;;;;;7.13;3.13;;;;;;;10.15;74.69;97772.19;5031061;28;20220;-87
2022/04/08 04:38:24;;;;;;;4.13;2.80;;;;;;;10.10;74.99;97797.34;5030707;28;20611;-85
2022/04/08 04:40:49;;;;;;;6.23;3.30;;;;;;;12.06;75.70;98119.25;5032331;28;20164;-88
2022/04/08 04:43:15;;;;;;;5.87;3.17;;;;;;;11.23;76.87;98006.22;5032239;28;20249;-86
2022/04/08 04:45:40;;;;;;;4.90;2.80;;;;;;;9.68;77.13;97758.56;5032172;28;20565;-86
2022/04/08 04:48:07;;;;;;;8.27;4.70;;;;;;;11.32;76.40;98013.16;5034371;28;20747;-86
2022/04/08 04:50:32;;;;;;;8.43;5.27;;;;;;;12.03;76.81;98128.53;5043304;28;20170;-87
2022/04/08 04:52:58;;;;;;;7.67;4.40;;;;;;;11.35;77.13;98028.38;5056718;28;20177;-84
2022/04/08 04:55:23;;;;;;;5.80;3.30;;;;;;;10.88;77.22;97970.09;5015668;28;20237;-87
2022/04/08 04:57:49;;;;;;;10.83;4.20;;;;;;;11.98;78.09;98146.16;5014756;28;20655;-87
2022/04/08 05:00:16;;;;;;;7.57;3.57;;;;;;;11.76;79.47;98155.06;5013964;28;20214;-87
2022/04/08 05:02:42;;;;;;;5.30;3.30;;;;;;;8.72;80.66;97695.88;5012478;28;20659;-85
2022/04/08 05:05:08;;;;;;;6.50;3.30;;;;;;;10.76;80.79;98010.34;5013501;28;20246;-86
2022/04/08 05:07:34;;;;;;;9.00;4.60;;;;;;;11.16;81.04;98053.38;5013440;28;20221;-87
2022/04/08 05:09:59;;;;;;;9.50;4.33;;;;;;;11.19;80.51;98048.38;5011953;28;20182;-87
2022/04/08 05:12:25;;;;;;;6.07;3.83;;;;;;;10.70;80.55;97966.34;5011630;28;20178;-86
2022/04/08 05:14:50;;;;;;;5.43;3.43;;;;;;;10.17;80.04;97861.53;5009539;28;20419;-86
2022/04/08 05:17:15;;;;;;;6.27;3.20;;;;;;;9.56;79.56;97766.72;5009765;28;20190;-86
2022/04/08 05:19:41;;;;;;;5.87;3.23;;;;;;;12.27;80.14;98185.59;5010455;28;20296;-88
2022/04/08 05:22:06;;;;;;;7.23;4.50;;;;;;;11.34;79.38;98027.53;5015714;28;20281;-86
2022/04/08 05:24:31;;;;;;;8.23;4.13;;;;;;;12.37;79.72;98172.25;5011804;28;20190;-87
2022/04/08 05:26:57;;;;;;;5.73;3.27;;;;;;;12.51;78.35;98177.53;5021927;28;20193;-87
2022/04/08 05:29:23;;;;;;;10.03;3.90;;;;;;;9.56;76.87;97654.75;5008560;28;20268;-87
2022/04/08 05:31:49;;;;;;;6.53;3.87;;;;;;;11.78;76.63;98001.28;5024507;28;20202;-88
2022/04/08 05:34:14;;;;;;;8.10;3.60;;;;;;;11.73;75.62;97976.69;5013668;28;20187;-89
2022/04/08 05:36:40;;;;;;;5.90;3.77;;;;;;;11.81;74.82;97988.66;5019574;28;20194;-89
2022/04/08 05:39:05;;;;;;;6.47;4.37;;;;;;;13.15;75.02;98222.59;5026670;28;20715;-89
2022/04/08 05:41:31;;;;;;;8.40;6.07;;;;;;;12.28;75.84;98037.59;5021531;28;20232;-88
2022/04/08 05:43:56;;;;;;;9.20;5.13;;;;;;;12.86;75.19;98117.13;5014313;28;20221;-88
2022/04/08 05:46:21;;;;;;;5.17;3.00;;;;;;;12.15;72.81;97990.06;5018028;28;20228;-87
2022/04/08 05:48:47;;;;;;;5.63;3.50;;;;;;;11.87;70.12;97888.19;5029542;28;20537;-88
2022/04/08 05:51:12;;;;;;;8.10;4.10;;;;;;;13.60;70.70;98196.91;5028123;28;20651;-88
2022/04/08 05:53:38;;;;;;;5.57;3.30;;;;;;;12.28;68.54;97974.16;5030515;28;20192;-88
2022/04/08 05:56:04;;;;;;;7.80;4.50;;;;;;;12.82;67.10;97999.44;5013344;28;20272;-88
2022/04/08 05:58:30;;;;;;;7.87;4.70;;;;;;;14.47;66.01;98245.44;5014448;28;20199;-87
2022/04/08 06:00:55;;;;;;;8.10;3.67;;;;;;;13.60;65.16;98083.34;5013805;28;20269;-89
2022/04/08 06:03:21;;;;;;;8.73;4.60;;;;;;;13.51;64.97;98060.38;5035832;28;20224;-88
2022/04/08 06:05:46;;;;;;;4.27;2.87;;;;;;;13.82;62.84;98091.19;5039422;28;20655;-87
2022/04/08 06:08:11;;;;;;;3.40;2.40;;;;;;;14.21;60.74;98167.91;5034307;28;20209;-88
2022/04/08 06:10:37;;;;;;;3.90;2.73;;;;;;;14.96;57.98;98253.50;5019823;28;20186;-88
2022/04/08 06:13:03;;;;;;;2.93;2.27;;;;;;;14.00;58.24;98076.13;5041705;28;20198;-87
2022/04/08 06:15:29;;;;;;;5.20;3.00;;;;;;;15.24;57.69;98256.25;5020842;28;20186;-87
2022/04/08 06:17:55;;;;;;;5.73;3.83;;;;;;;13.53;57.04;97964.66;5028428;28;20647;-87
2022/04/08 06:20:21;;;;;;;3.97;2.50;;;;;;;15.43;57.65;98267.44;5032320;28;20217;-87
2022/04/08 06:22:48;;;;;;;4.60;3.10;;;;;;;15.57;57.26;98270.97;5032450;28;20662;-88
2022/04/08 06:25:16;;;;;;;4.37;2.80;;;;;;;15.77;56.99;98283.81;5029675;28;20204;-86
2022/04/08 06:27:44;;;;;;;4.33;2.83;;;;;;;13.98;56.92;98021.84;5016518;28;20331;-88
2022/04/08 06:30:11;;;;;;;5.23;2.70;;;;;;;13.46;56.43;97940.00;5030830;28;20249;-88
2022/04/08 06:32:38;;;;;;;3.97;2.60;;;;;;;15.45;56.57;98235.16;5031020;28;20257;-86
2022/04/08 06:35:04;;;;;;;6.27;3.93;;;;;;;14.76;56.50;98097.94;5040936;28;20729;-87
2022/04/08 06:37:30;;;;;;;4.63;3.20;;;;;;;15.71;55.79;98248.91;5014522;28;20561;-88
2022/04/08 06:39:56;;;;;;;7.93;4.90;;;;;;;16.09;56.27;98294.19;5012641;28;20202;-88
2022/04/08 06:42:24;;;;;;;6.20;4.10;;;;;;;15.66;55.99;98214.00;5012538;28;20209;-88
2022/04/08 06:44:50;;;;;;;5.47;3.50;;;;;;;15.52;55.39;98183.34;5016922;28;20813;-87
2022/04/08 06:47:15;;;;;;;9.63;5.20;;;;;;;15.15;55.06;98138.94;5021086;28;20218;-87
2022/04/08 06:49:44;;;;;;;11.20;4.17;;;;;;;16.31;54.36;98313.84;5017649;28;20265;-87
2022/04/08 06:52:11;;;;;;;10.20;4.63;;;;;;;15.32;53.96;98139.03;5021946;28;20555;-87
2022/04/08 06:54:36;;;;;;;3.67;2.53;;;;;;;15.46;53.64;98196.09;5017173;28;20236;-86
2022/04/08 06:57:02;;;;;;;6.97;3.43;;;;;;;15.98;53.66;98280.53;5020700;28;20182;-86
2022/04/08 06:59:27;;;;;;;10.90;4.53;;;;;;;15.64;53.58;98169.78;5010525;28;20248;-87
2022/04/08 07:01:52;;;;;;;12.47;5.13;;;;;;;15.48;52.74;98155.28;5013314;28;20179;-87
2022/04/08 07:04:18;;;;;;;5.10;3.10;;;;;;;15.44;52.42;98126.31;5017936;28;20198;-87
2022/04/08 07:06:43;;;;;;;3.67;2.70;;;;;;;14.64;52.20;97986.63;5029133;28;20551;-88
2022/04/08 07:09:08;;;;;;;4.00;2.50;;;;;;;16.01;52.75;98209.91;5019044;28;20191;-86
2022/04/08 07:11:34;;;;;;;3.03;2.30;;;;;;;16.88;52.22;98302.94;5013884;28;20218;-87
2022/04/08 07:14:01;;;;;;;4.07;2.60;;;;;;;16.30;52.04;98204.88;5023086;28;20195;-87
2022/04/08 07:16:27;;;;;;;4.13;2.73;;;;;;;15.98;52.24;98151.19;5004793;28;20277;-87
2022/04/08 07:18:52;;;;;;;4.83;2.97;;;;;;;16.58;51.49;98250.09;5023850;28;20297;-87
2022/04/08 07:21:18;;;;;;;6.40;3.50;;;;;;;16.26;50.94;98167.41;5028407;28;20181;-87
2022/04/08 07:23:44;;;;;;;7.57;3.97;;;;;;;16.44;50.17;98106.13;5026041;28;20709;-87
2022/04/08 07:26:09;;;;;;;5.03;3.13;;;;;;;17.92;49.29;98307.97;5037107;28;20189;-86
2022/04/08 07:28:35;;;;;;;3.73;2.60;;;;;;;18.05;48.80;98299.38;5028322;28;20190;-86
2022/04/08 07:31:00;;;;;;;10.33;4.90;;;;;;;18.40;49.00;98324.88;5037535;28;20615;-87
2022/04/08 07:33:26;;;;;;;4.50;2.53;;;;;;;16.67;48.65;98103.59;5026703;28;20194;-86
2022/04/08 07:35:52;;;;;;;8.57;6.57;;;;;;;18.49;48.92;98363.28;5030752;28;20182;-88
2022/04/08 07:38:18;;;;;;;3.33;2.73;;;;;;;18.06;46.25;98218.28;5023898;28;20190;-88
2022/04/08 07:40:44;;;;;;;9.80;4.83;;;;;;;19.14;46.23;98373.19;5013123;28;20320;-86
2022/04/08 07:43:09;;;;;;;3.53;2.53;;;;;;;18.27;46.92;98336.88;5015548;28;20197;-86
2022/04/08 07:45:34;;;;;;;7.73;2.10;;;;;;;17.63;46.40;98185.19;5029620;28;20704;-86
2022/04/08 07:48:00;;;;;;;6.57;2.60;;;;;;;17.53;47.24;98197.97;5009886;28;20675;-85
2022/04/08 07:50:27;;;;;;;3.30;2.50;;;;;;;18.40;47.00;98382.97;5022114;28;20759;-86
2022/04/08 07:52:52;;;;;;;5.23;2.70;;;;;;;17.82;45.75;98228.66;5016915;28;20194;-86
2022/04/08 07:55:20;;;;;;;4.63;2.77;;;;;;;18.65;45.45;98370.06;4993834;28;20797;-88
2022/04/08 07:57:50;;;;;;;9.40;5.07;;;;;;;19.08;45.10;98372.38;5012512;28;20193;-85
2022/04/08 08:00:19;;;;;;;17.50;9.37;;;;;;;19.09;44.29;98380.03;5017004;28;20809;-86
2022/04/08 08:02:45;;;;;;;10.27;6.30;;;;;;;18.87;44.11;98293.84;5016413;28;20202;-86
2022/04/08 08:05:11;;;;;;;12.77;6.57;;;;;;;18.31;45.14;98170.31;5031147;28;20178;-87
2022/04/08 08:07:46;;;;;;;4.80;2.80;;;;;;;19.30;44.75;98367.09;5023487;28;20564;-86
2022/04/08 08:10:20;;;;;;;7.67;4.03;;;;;;;19.02;44.89;98318.53;5025736;28;20182;-87
2022/04/08 08:12:46;;;;;;;9.57;5.17;;;;;;;18.91;44.75;98277.59;5020252;28;20244;-86
2022/04/08 08:15:12;;;;;;;15.47;8.37;;;;;;;19.31;42.89;98330.28;5017959;28;20269;-86
2022/04/08 08:17:39;;;;;;;8.87;4.77;;;;;;;18.02;43.86;98199.50;5025602;28;20269;-86
2022/04/08 08:20:06;;;;;;;7.00;4.67;;;;;;;19.75;43.53;98393.28;5021712;28;20208;-86
2022/04/08 08:22:32;;;;;;;5.10;3.60;;;;;;;19.66;42.74;98300.91;5011394;28;20182;-87
2022/04/08 08:24:58;;;;;;;7.13;3.70;;;;;;;19.74;41.84;98273.44;5021486;28;20196;-86
2022/04/08 08:27:23;;;;;;;5.93;3.50;;;;;;;20.47;41.51;98399.38;5019216;28;20270;-86
2022/04/08 08:29:48;;;;;;;4.90;3.50;;;;;;;19.85;42.62;98293.00;5024137;28;20566;-87
2022/04/08 08:32:14;;;;;;;6.10;3.70;;;;;;;17.53;42.25;98023.97;5023508;28;20210;-86
2022/04/08 08:34:39;;;;;;;6.97;3.77;;;;;;;19.36;41.85;98263.53;5026085;28;20174;-86
2022/04/08 08:37:04;;;;;;;4.33;3.23;;;;;;;19.59;41.79;98294.13;5028008;28;20186;-86
2022/04/08 08:39:30;;;;;;;4.63;3.00;;;;;;;19.96;41.08;98331.41;5023135;28;20209;-86
2022/04/08 08:41:56;;;;;;;3.77;2.90;;;;;;;20.18;41.78;98383.41;5009599;28;20253;-86
2022/04/08 08:44:21;;;;;;;3.83;3.00;;;;;;;20.45;41.36;98404.56;5022324;28;20799;-86
2022/04/08 08:46:49;;;;;;;3.70;3.10;;;;;;;19.97;40.96;98367.34;5008460;28;20699;-88
2022/04/08 08:49:18;;;;;;;7.53;3.60;;;;;;;19.59;40.89;98251.31;5015642;28;20244;-87
2022/04/08 08:51:51;;;;;;;7.50;4.23;;;;;;;20.74;40.26;98359.63;5026533;28;20189;-87
2022/04/08 08:54:17;;;;;;;5.60;3.20;;;;;;;19.60;39.07;98203.41;5007980;28;20210;-87
2022/04/08 08:56:44;;;;;;;4.43;2.93;;;;;;;20.20;38.25;98300.28;5030966;28;20748;-88
2022/04/08 08:59:10;;;;;;;3.63;2.70;;;;;;;20.45;38.08;98378.84;5012956;28;20672;-87
2022/04/08 09:01:36;;;;;;;4.60;3.20;;;;;;;20.52;38.32;98302.47;5021220;28;20216;-86
2022/04/08 09:04:02;;;;;;;5.70;2.97;;;;;;;20.40;38.08;98303.50;5019582;28;20194;-86
2022/04/08 09:06:27;;;;;;;4.87;2.97;;;;;;;20.62;38.09;98323.78;5015782;28;20751;-88
2022/04/08 09:08:58;;;;;;;3.20;2.70;;;;;;;19.46;37.77;98123.13;5022474;28;20674;-88
2022/04/08 09:11:24;;;;;;;5.07;2.53;;;;;;;21.09;37.38;98319.69;5027042;28;20198;-87
2022/04/08 09:13:50;;;;;;;5.83;2.90;;;;;;;19.75;37.63;98170.69;5014255;28;20239;-88
2022/04/08 09:16:27;;;;;;;5.17;3.10;;;;;;;19.40;38.69;98118.91;5024649;28;20182;-88
2022/04/08 09:18:54;;;;;;;6.73;3.50;;;;;;;21.93;37.74;98395.56;5015094;28;20825;-87
2022/04/08 09:21:23;;;;;;;4.23;2.90;;;;;;;20.97;37.25;98268.38;5011930;28;20189;-80
2022/04/08 09:23:49;;;;;;;6.57;3.30;;;;;;;20.82;37.20;98325.19;5019433;28;20270;-78
2022/04/08 09:26:16;;;;;;;6.53;3.57;;;;;;;20.35;36.00;98150.19;5012373;28;20264;-81
2022/04/08 09:28:42;;;;;;;6.63;3.87;;;;;;;21.46;34.42;98332.78;5017332;28;20245;-80
2022/04/08 09:31:19;;;;;;;4.77;3.00;;;;;;;21.72;34.21;98386.47;5010961;28;20194;-80
2022/04/08 09:33:50;;;;;;;4.07;3.53;;;;;;;20.69;34.97;98228.50;5020918;28;20182;-79
2022/04/08 09:36:30;;;;;;;5.40;3.30;;;;;;;21.36;34.30;98326.09;5012093;28;20248;-79
2022/04/08 09:38:56;;;;;;;6.43;3.93;;;;;;;20.40;34.29;98133.81;5016381;28;20205;-80
2022/04/08 09:41:36;;;;;;;6.63;4.10;;;;;;;22.22;33.82;98391.56;5018202;28;20243;-79
2022/04/08 09:44:02;;;;;;;5.70;3.90;;;;;;;22.14;32.78;98369.41;5015664;28;21031;-82
2022/04/08 09:46:27;;;;;;;8.90;4.20;;;;;;;21.51;31.80;98206.50;5016780;28;20190;-80
2022/04/08 09:48:53;;;;;;;5.97;3.07;;;;;;;22.69;31.13;98328.72;5017889;28;20185;-80
2022/04/08 09:51:23;;;;;;;5.97;3.70;;;;;;;22.07;30.59;98293.06;5012629;28;20186;-80
2022/04/08 09:54:00;;;;;;;4.23;2.77;;;;;;;21.24;29.89;98177.00;5021720;28;20273;-81
2022/04/08 09:56:27;;;;;;;4.23;2.93;;;;;;;22.26;30.16;98353.69;5006150;28;20241;-82
2022/04/08 09:59:10;;;;;;;5.30;4.00;;;;;;;22.97;30.36;98406.41;5017663;28;20210;-82
2022/04/08 10:01:37;;;;;;;4.40;2.90;;;;;;;22.87;30.66;98402.34;5014815;28;20262;-81
2022/04/08 10:04:04;;;;;;;6.30;3.13;;;;;;;23.11;30.80;98395.78;5018587;28;20561;-83
2022/04/08 10:06:30;;;;;;;8.77;4.43;;;;;;;23.11;30.77;98372.53;5015499;28;20213;-80
2022/04/08 10:08:58;;;;;;;5.10;3.93;;;;;;;22.60;30.26;98255.81;5027313;28;20212;-81
2022/04/08 10:11:45;;;;;;;3.33;2.60;;;;;;;21.53;29.74;98158.41;5015496;28;20655;-83
2022/04/08 10:14:16;;;;;;;3.73;2.30;;;;;;;22.37;30.64;98398.16;5009981;28;20193;-82
2022/04/08 10:16:42;;;;;;;4.53;3.20;;;;;;;21.95;30.29;98175.59;5011336;28;20562;-80
2022/04/08 10:19:08;;;;;;;4.83;2.90;;;;;;;22.10;29.90;98282.69;5009630;28;20218;-81
2022/04/08 10:21:40;;;;;;;2.73;2.30;;;;;;;22.96;30.23;98409.88;5016808;28;20654;-82
2022/04/08 10:24:10;;;;;;;6.07;4.57;;;;;;;23.57;30.42;98414.50;5011070;28;20180;-82
2022/04/08 10:26:54;;;;;;;4.37;2.80;;;;;;;23.43;29.96;98359.75;5021598;28;20232;-83
2022/04/08 10:29:20;;;;;;;3.03;2.23;;;;;;;22.53;30.21;98352.28;5029004;28;20183;-82
2022/04/08 10:31:54;;;;;;;3.43;2.33;;;;;;;21.73;30.27;98185.47;5020721;28;20276;-81
2022/04/08 10:34:22;;;;;;;6.23;3.23;;;;;;;21.88;30.38;98181.75;5032918;28;20254;-81
2022/04/08 10:36:47;;;;;;;4.93;2.57;;;;;;;21.51;30.51;98104.34;5016860;28;20179;-81
2022/04/08 10:39:22;;;;;;;4.13;2.80;;;;;;;22.75;30.51;98291.63;5011845;28;20274;-82
2022/04/08 10:41:48;;;;;;;5.50;2.93;;;;;;;23.60;30.54;98406.69;5022751;28;20186;-81
2022/04/08 10:44:15;;;;;;;5.03;2.80;;;;;;;23.46;30.34;98424.25;5011872;28;20205;-81
2022/04/08 10:46:52;;;;;;;26.90;16.67;;;;;;;24.01;29.21;98427.19;5016210;28;20209;-81
2022/04/08 10:49:18;;;;;;;14.83;10.30;;;;;;;24.32;29.35;98413.47;5013859;28;20249;-81
2022/04/08 10:51:45;;;;;;;7.57;4.63;;;;;;;23.83;28.93;98329.44;5025340;28;20185;-81
2022/04/08 10:54:11;;;;;;;5.33;3.40;;;;;;;24.27;28.79;98405.00;5025002;28;20684;-81
2022/04/08 10:56:37;;;;;;;4.67;3.43;;;;;;;24.32;28.92;98416.06;5003463;28;20226;-80
2022/04/08 10:59:03;;;;;;;5.13;3.10;;;;;;;24.46;28.55;98401.88;5011762;28;20947;-81
2022/04/08 11:01:28;;;;;;;4.87;2.83;;;;;;;24.44;28.42;98400.22;5012140;28;20185;-81
2022/04/08 11:04:00;;;;;;;4.20;2.87;;;;;;;24.39;29.39;98366.69;5019877;28;20190;-82
2022/04/08 11:06:36;;;;;;;4.50;2.80;;;;;;;24.86;28.89;98390.41;5016015;28;20186;-84
2022/04/08 11:09:09;;;;;;;4.80;2.90;;;;;;;24.78;28.64;98390.56;5028142;28;20185;-82
2022/04/08 11:11:38;;;;;;;4.43;2.93;;;;;;;22.48;28.85;98070.38;5017192;28;20218;-81
2022/04/08 11:14:05;;;;;;;6.37;3.03;;;;;;;24.24;29.31;98381.78;5014192;28;20651;-81
2022/04/08 11:16:36;;;;;;;4.47;3.00;;;;;;;24.16;29.00;98343.22;5017602;28;20195;-83
2022/04/08 11:19:06;;;;;;;7.30;5.30;;;;;;;23.45;28.62;98259.81;5030832;28;20209;-82
2022/04/08 11:21:35;;;;;;;13.97;7.87;;;;;;;23.27;28.30;98271.41;5017686;28;20224;-81
2022/04/08 11:24:19;;;;;;;4.03;3.00;;;;;;;23.51;26.91;98378.50;5014619;28;20183;-85
2022/04/08 11:26:51;;;;;;;5.00;3.03;;;;;;;23.15;27.41;98318.22;5032303;28;20256;-85
2022/04/08 11:29:18;;;;;;;8.27;3.90;;;;;;;23.57;27.75;98362.81;5018324;28;20197;-85